createdAt,value
2022-11-16T00:00:05.529Z,105.2
2022-11-16T00:05:01.342Z,101.8
2022-11-16T00:10:01.258Z,100.8
2022-11-16T00:15:01.286Z,99.9
2022-11-16T00:20:06.261Z,98.4
2022-11-16T00:25:01.363Z,101.0
2022-11-16T00:30:01.205Z,100.3
2022-11-16T00:35:01.360Z,100.1
2022-11-16T00:40:01.242Z,99.0
2022-11-16T00:45:01.331Z,99.1
2022-11-16T00:50:01.511Z,95.0
2022-11-16T00:55:01.261Z,95.5
2022-11-16T01:00:01.521Z,94.9
2022-11-16T01:05:01.338Z,95.5
2022-11-16T01:10:01.213Z,95.4
2022-11-16T01:15:01.326Z,97.0
2022-11-16T01:20:01.202Z,96.7
2022-11-16T01:30:01.240Z,96.1
2022-11-16T01:35:02.284Z,100.0
2022-11-16T01:40:01.186Z,98.0
2022-11-16T01:45:01.238Z,97.9
2022-11-16T01:50:01.163Z,97.8
2022-11-16T01:55:01.222Z,97.7
2022-11-16T02:00:01.177Z,93.9
2022-11-16T02:05:01.283Z,94.7
2022-11-16T02:10:01.147Z,95.5
2022-11-16T02:15:01.273Z,96.0
2022-11-16T02:20:01.164Z,108.0
2022-11-16T02:35:01.214Z,91.2
2022-11-16T02:40:01.088Z,91.6
2022-11-16T02:45:01.069Z,92.2
2022-11-16T02:50:01.074Z,91.7
2022-11-16T02:55:01.140Z,91.6
2022-11-16T03:00:01.245Z,91.4
2022-11-16T03:05:01.154Z,105.7
2022-11-16T03:10:01.068Z,105.8
2022-11-16T03:15:01.258Z,105.6
2022-11-16T03:20:01.092Z,104.9
2022-11-16T03:25:01.520Z,105.2
2022-11-16T03:30:01.071Z,91.2
2022-11-16T03:35:01.216Z,91.3
2022-11-16T03:40:01.117Z,92.0
2022-11-16T03:45:01.135Z,93.4
2022-11-16T03:50:01.152Z,93.2
2022-11-16T03:55:01.133Z,93.8
2022-11-16T04:00:01.093Z,93.4
2022-11-16T04:05:01.132Z,92.4
2022-11-16T04:10:01.070Z,91.5
2022-11-16T04:15:01.200Z,95.0
2022-11-16T04:20:01.416Z,94.1
2022-11-16T04:25:01.152Z,93.7
2022-11-16T04:30:06.128Z,94.9
2022-11-16T04:35:01.242Z,95.0
2022-11-16T04:40:01.144Z,91.8
2022-11-16T04:45:02.101Z,92.0
2022-11-16T04:50:01.072Z,92.4
2022-11-16T04:55:01.209Z,92.6
2022-11-16T05:00:01.097Z,98.2
2022-11-16T05:10:01.142Z,98.9
2022-11-16T05:15:01.141Z,99.7
2022-11-16T05:20:01.099Z,100.4
2022-11-16T05:25:02.167Z,95.6
2022-11-16T05:30:01.078Z,98.4
2022-11-16T05:35:01.247Z,98.0
2022-11-16T05:40:01.107Z,97.4
2022-11-16T05:45:01.275Z,98.9
2022-11-16T05:50:01.143Z,98.4
2022-11-16T05:55:01.205Z,96.2
2022-11-16T06:00:02.199Z,96.4
2022-11-16T06:05:01.205Z,96.5
2022-11-16T06:10:01.075Z,94.8
2022-11-16T06:15:06.206Z,95.4
2022-11-16T06:20:01.406Z,96.6
2022-11-16T06:25:01.346Z,97.4
2022-11-16T06:30:01.080Z,97.4
2022-11-16T06:35:01.244Z,99.0
2022-11-16T06:40:01.394Z,98.2
2022-11-16T06:45:01.213Z,97.7
2022-11-16T06:50:01.071Z,96.7
2022-11-16T06:55:01.145Z,99.2
2022-11-16T07:00:01.106Z,97.9
2022-11-16T07:05:03.638Z,99.7
2022-11-16T07:10:01.071Z,99.2
2022-11-16T07:15:01.200Z,101.0
2022-11-16T07:20:01.093Z,99.9
2022-11-16T07:25:01.136Z,101.0
2022-11-16T07:30:01.071Z,100.8
2022-11-16T07:35:01.143Z,102.1
2022-11-16T07:40:01.293Z,103.6
2022-11-16T07:45:01.147Z,103.8
2022-11-16T07:50:01.079Z,103.7
2022-11-16T07:55:01.171Z,103.8
2022-11-16T08:00:01.108Z,103.6
2022-11-16T08:05:01.152Z,98.5
2022-11-16T08:10:02.144Z,95.6
2022-11-16T08:15:01.231Z,93.0
2022-11-16T08:20:01.204Z,90.3
2022-11-16T08:25:01.215Z,94.2
2022-11-16T08:30:01.156Z,65.6
2022-11-16T08:35:01.151Z,76.4
2022-11-16T08:40:01.113Z,80.1
2022-11-16T08:45:01.151Z,90.5
2022-11-16T08:50:01.094Z,90.8
2022-11-16T08:55:01.352Z,96.8
2022-11-16T09:00:01.110Z,97.5
2022-11-16T09:05:01.169Z,99.1
2022-11-16T09:10:01.186Z,94.4
2022-11-16T09:15:01.167Z,93.8
2022-11-16T09:20:01.207Z,92.0
2022-11-16T09:25:01.218Z,91.7
2022-11-16T09:30:01.116Z,95.8
2022-11-16T09:35:01.161Z,93.8
2022-11-16T09:40:01.197Z,94.1
2022-11-16T09:45:01.303Z,94.8
2022-11-16T09:50:03.816Z,95.4
2022-11-16T09:55:01.227Z,90.4
2022-11-16T10:00:01.132Z,92.4
2022-11-16T10:05:01.226Z,93.6
2022-11-16T10:10:01.351Z,95.2
2022-11-16T10:15:06.309Z,95.2
2022-11-16T10:30:01.080Z,94.2
2022-11-16T10:35:01.323Z,92.8
2022-11-16T10:40:01.122Z,92.4
2022-11-16T10:45:01.282Z,92.2
2022-11-16T10:50:01.020Z,91.5
2022-11-16T10:55:01.271Z,90.6
2022-11-16T11:00:02.050Z,91.6
2022-11-16T11:05:01.157Z,93.4
2022-11-16T11:10:01.041Z,94.5
2022-11-16T11:15:01.194Z,96.5
2022-11-16T11:20:02.118Z,98.6
2022-11-16T11:40:00.809Z,106.0
2022-11-16T12:00:01.384Z,92.8
2022-11-16T12:05:02.648Z,93.4
2022-11-16T12:20:01.627Z,94.4
2022-11-16T12:40:00.912Z,101.0
2022-11-16T13:00:01.187Z,99.8
2022-11-16T13:05:01.205Z,96.9
2022-11-16T13:10:01.084Z,96.1
2022-11-16T13:15:01.148Z,95.0
2022-11-16T13:20:01.127Z,95.2
2022-11-16T13:25:01.152Z,94.0
2022-11-16T13:30:01.088Z,93.9
2022-11-16T13:35:01.218Z,94.0
2022-11-16T13:40:01.223Z,94.1
2022-11-16T13:45:01.158Z,93.8
2022-11-16T13:50:01.094Z,93.5
2022-11-16T13:55:01.221Z,93.7
2022-11-16T14:00:01.252Z,93.4
2022-11-16T14:05:01.181Z,92.8
2022-11-16T14:10:01.087Z,92.4
2022-11-16T14:15:03.704Z,93.0
2022-11-16T14:20:01.128Z,93.7
2022-11-16T14:25:01.161Z,92.4
2022-11-16T14:30:01.084Z,93.0
2022-11-16T14:35:01.213Z,92.8
2022-11-16T14:50:01.402Z,104.4
2022-11-16T14:55:01.170Z,100.6
2022-11-16T15:00:01.076Z,94.3
2022-11-16T15:05:02.186Z,91.5
2022-11-16T15:10:01.095Z,90.4
2022-11-16T15:15:01.130Z,86.8
2022-11-16T15:20:01.052Z,84.4
2022-11-16T15:40:01.860Z,90.6
2022-11-16T15:45:01.630Z,89.7
2022-11-16T15:50:01.577Z,91.5
2022-11-16T15:55:01.597Z,92.2
2022-11-16T16:10:01.115Z,107.4
2022-11-16T16:30:01.510Z,85.0
2022-11-16T16:35:01.533Z,87.7
2022-11-16T16:40:01.547Z,87.4
2022-11-16T16:45:01.505Z,87.6
2022-11-16T16:50:01.645Z,88.6
2022-11-16T17:00:01.640Z,91.2
2022-11-16T17:05:01.410Z,92.7
2022-11-16T17:10:01.580Z,93.9
2022-11-16T17:15:01.373Z,94.5
2022-11-16T17:20:01.279Z,95.2
2022-11-16T17:25:01.450Z,96.2
2022-11-16T17:30:01.346Z,96.8
2022-11-16T17:35:01.860Z,97.8
2022-11-16T17:40:01.311Z,99.4
2022-11-16T17:45:01.368Z,101.2
2022-11-16T17:50:01.321Z,102.1
2022-11-16T17:55:01.355Z,103.8
2022-11-16T18:00:01.291Z,106.2
2022-11-16T18:05:01.338Z,109.0
2022-11-16T18:10:01.350Z,109.6
2022-11-16T18:15:26.765Z,124.6
2022-11-16T18:20:01.312Z,125.5
2022-11-16T18:25:08.053Z,124.5
2022-11-16T18:30:01.284Z,121.6
2022-11-16T18:40:01.410Z,105.6
2022-11-16T18:45:02.375Z,102.8
2022-11-16T18:50:01.265Z,101.4
2022-11-16T18:55:01.380Z,100.1
2022-11-16T19:00:06.296Z,96.8
2022-11-16T19:05:01.334Z,97.6
2022-11-16T19:10:01.241Z,98.6
2022-11-16T19:15:06.571Z,98.6
2022-11-16T19:20:01.383Z,99.6
2022-11-16T19:25:05.634Z,101.4
2022-11-16T19:30:01.232Z,101.4
2022-11-16T19:35:01.358Z,102.1
2022-11-16T19:40:01.335Z,103.1
2022-11-16T19:45:01.336Z,105.5
2022-11-16T19:50:01.211Z,108.8
2022-11-16T19:55:01.273Z,111.1
2022-11-16T20:00:01.350Z,111.5
2022-11-16T20:05:02.250Z,111.0
2022-11-16T20:10:01.250Z,121.8
2022-11-16T20:15:01.258Z,117.6
2022-11-16T20:20:01.225Z,115.1
2022-11-16T20:25:01.283Z,113.5
2022-11-16T20:30:05.052Z,115.0
2022-11-16T20:35:01.259Z,109.0
2022-11-16T20:40:01.330Z,120.7
2022-11-16T20:45:01.260Z,142.1
2022-11-16T20:50:01.184Z,144.8
2022-11-16T20:55:01.265Z,162.5
2022-11-16T21:00:01.444Z,158.4
2022-11-16T21:05:01.269Z,152.2
2022-11-16T21:10:01.159Z,142.4
2022-11-16T21:15:01.199Z,147.6
2022-11-16T21:20:25.590Z,140.6
2022-11-16T21:25:01.234Z,144.7
2022-11-16T21:30:01.163Z,149.6
2022-11-16T21:35:01.229Z,147.0
2022-11-16T21:40:02.312Z,149.3
2022-11-16T21:45:01.297Z,144.8
2022-11-16T22:10:01.280Z,127.8
2022-11-16T22:15:01.218Z,119.0
2022-11-16T22:20:01.091Z,117.5
2022-11-16T22:25:01.624Z,114.2
2022-11-16T22:30:01.212Z,111.9
2022-11-16T22:35:01.791Z,110.1
2022-11-16T22:40:01.093Z,108.5
2022-11-16T22:45:01.226Z,108.1
2022-11-16T22:50:01.117Z,110.0
2022-11-16T22:55:01.224Z,112.0
2022-11-16T23:00:01.097Z,112.5
2022-11-16T23:05:01.162Z,115.0
2022-11-16T23:10:01.142Z,115.6
2022-11-16T23:15:01.162Z,112.7
2022-11-16T23:20:01.091Z,109.8
2022-11-16T23:25:01.226Z,106.4
2022-11-16T23:30:01.210Z,104.9
2022-11-16T23:35:01.156Z,112.6
2022-11-16T23:40:02.152Z,114.8
2022-11-16T23:45:01.158Z,116.8
2022-11-16T23:50:01.216Z,117.0
2022-11-16T23:55:01.220Z,116.2
